Sion Airport LSGS

Airport Data

Name: Sion Airport

Ident: LSGS

Lat: 46.21960068

Long: 7.326759815

Elevation: 1585 ft

IataCode: SIR

City: Sion

Homepage: http://www.sionairport.ch

Metar

2021/09/28 05:50
LSGS 280550Z 08006KT 9999 FEW030 BKN060 14/11 Q1023

Taf

Add a Webcam Url. We will unlock it as soon is possible. Thank you:
Url: Title: